createdAt,value
2022-12-04T00:02:50.079Z,9.20
2022-12-04T00:06:57.122Z,9.14
2022-12-04T00:10:58.862Z,8.91
2022-12-04T00:19:19.287Z,9.12
2022-12-04T00:23:22.285Z,9.05
2022-12-04T00:27:22.476Z,8.83
2022-12-04T00:31:27.704Z,8.75
2022-12-04T00:35:29.280Z,8.98
2022-12-04T00:39:31.974Z,9.01
2022-12-04T00:43:33.916Z,9.09
2022-12-04T00:47:34.050Z,9.19
2022-12-04T00:51:34.289Z,9.22
2022-12-04T00:55:37.143Z,9.24
2022-12-04T00:59:37.285Z,9.27
2022-12-04T01:03:38.159Z,9.36
2022-12-04T01:07:38.499Z,9.43
2022-12-04T01:11:41.270Z,9.22
2022-12-04T01:15:44.045Z,9.55
2022-12-04T01:19:44.257Z,9.37
2022-12-04T01:23:45.171Z,9.17
2022-12-04T01:27:48.138Z,9.29
2022-12-04T01:31:48.295Z,9.31
2022-12-04T01:35:56.511Z,9.16
2022-12-04T01:39:56.808Z,8.97
2022-12-04T01:44:16.666Z,9.42
2022-12-04T01:48:28.275Z,9.60
2022-12-04T01:52:29.770Z,9.35
2022-12-04T01:56:39.472Z,9.30
2022-12-04T02:00:42.591Z,9.23
2022-12-04T02:04:45.318Z,9.50
2022-12-04T02:08:45.632Z,9.60
2022-12-04T02:12:54.283Z,9.57
2022-12-04T02:17:10.090Z,9.61
2022-12-04T02:21:19.295Z,9.40
2022-12-04T02:25:32.522Z,9.10
2022-12-04T02:29:49.659Z,9.28
2022-12-04T02:33:57.793Z,9.14
2022-12-04T02:38:06.625Z,9.34
2022-12-04T02:42:17.726Z,9.25
2022-12-04T02:46:27.760Z,9.36
2022-12-04T02:50:29.760Z,9.25
2022-12-04T02:54:39.333Z,9.62
2022-12-04T02:58:47.432Z,9.46
2022-12-04T03:02:58.377Z,9.33
2022-12-04T03:07:05.115Z,9.25
2022-12-04T03:11:06.333Z,9.29
2022-12-04T03:15:12.852Z,9.58
2022-12-04T03:19:22.768Z,9.74
2022-12-04T03:23:32.893Z,9.44
2022-12-04T03:27:44.759Z,9.75
2022-12-04T03:31:53.416Z,9.54
2022-12-04T03:36:02.888Z,9.74
2022-12-04T03:40:13.729Z,9.64
2022-12-04T03:44:22.735Z,9.80
2022-12-04T03:48:31.545Z,9.87
2022-12-04T03:52:45.110Z,9.76
2022-12-04T03:56:51.971Z,9.61
2022-12-04T04:00:56.552Z,9.93
2022-12-04T04:05:01.666Z,9.82
2022-12-04T04:09:12.382Z,9.83
2022-12-04T04:13:38.995Z,9.93
2022-12-04T04:18:04.047Z,9.91
2022-12-04T04:22:23.834Z,9.90
2022-12-04T04:26:29.697Z,9.81
2022-12-04T04:30:34.647Z,9.85
2022-12-04T04:34:48.808Z,9.79
2022-12-04T04:39:00.583Z,9.65
2022-12-04T04:43:12.340Z,9.55
2022-12-04T04:47:21.630Z,9.46
2022-12-04T04:51:22.879Z,9.62
2022-12-04T04:55:25.070Z,9.63
2022-12-04T04:59:27.778Z,9.98
2022-12-04T05:03:28.202Z,9.70
2022-12-04T05:07:28.317Z,9.97
2022-12-04T05:11:28.552Z,9.96
2022-12-04T05:15:31.310Z,9.93
2022-12-04T05:19:48.176Z,10.07
2022-12-04T05:23:48.584Z,9.73
2022-12-04T05:27:48.730Z,9.83
2022-12-04T05:31:51.479Z,10.26
2022-12-04T05:36:00.493Z,10.24
2022-12-04T05:40:00.660Z,10.01
2022-12-04T05:44:00.772Z,9.76
2022-12-04T05:48:04.882Z,9.85
2022-12-04T05:52:06.876Z,9.95
2022-12-04T05:56:08.953Z,10.15
2022-12-04T06:00:11.639Z,9.62
2022-12-04T06:04:15.232Z,10.02
2022-12-04T06:08:15.445Z,10.21
2022-12-04T06:12:15.603Z,10.34
2022-12-04T06:16:18.221Z,10.10
2022-12-04T06:20:21.434Z,9.92
2022-12-04T06:24:24.558Z,10.26
2022-12-04T06:28:24.655Z,10.29
2022-12-04T06:32:24.824Z,10.40
2022-12-04T06:36:28.182Z,9.97
2022-12-04T06:40:28.273Z,9.77
2022-12-04T06:44:28.414Z,9.91
2022-12-04T06:48:29.402Z,10.19
2022-12-04T06:52:32.140Z,10.20
2022-12-04T06:56:35.035Z,10.34
2022-12-04T07:00:35.303Z,10.05
2022-12-04T07:04:35.584Z,10.11
2022-12-04T07:08:38.416Z,10.23
2022-12-04T07:12:38.477Z,10.39
2022-12-04T07:16:41.483Z,10.20
2022-12-04T07:20:43.543Z,10.45
2022-12-04T07:24:46.370Z,10.32
2022-12-04T07:28:47.292Z,10.42
2022-12-04T07:32:47.373Z,10.11
2022-12-04T07:36:47.431Z,9.88
2022-12-04T07:40:50.095Z,10.30
2022-12-04T07:44:50.321Z,10.24
2022-12-04T07:48:50.486Z,10.32
2022-12-04T07:52:50.663Z,10.37
2022-12-04T07:56:53.314Z,10.62
2022-12-04T08:00:53.489Z,10.35
2022-12-04T08:04:53.882Z,10.61
2022-12-04T08:08:55.548Z,10.54
2022-12-04T08:12:58.207Z,10.70
2022-12-04T08:16:58.426Z,10.75
2022-12-04T08:21:05.744Z,10.80
2022-12-04T08:25:05.970Z,11.13
2022-12-04T08:29:09.137Z,10.87
2022-12-04T08:33:09.315Z,11.50
2022-12-04T08:37:10.350Z,11.25
2022-12-04T08:41:15.155Z,11.55
2022-12-04T08:45:18.050Z,11.71
2022-12-04T08:49:18.228Z,11.38
2022-12-04T08:53:18.343Z,11.42
2022-12-04T08:57:18.451Z,11.55
2022-12-04T09:01:23.998Z,11.53
2022-12-04T09:05:24.212Z,11.57
2022-12-04T09:09:24.371Z,11.86
2022-12-04T09:13:24.622Z,11.88
2022-12-04T09:17:27.290Z,11.77
2022-12-04T09:21:28.346Z,11.36
2022-12-04T09:25:28.465Z,11.51
2022-12-04T09:29:28.959Z,11.54
2022-12-04T09:33:32.735Z,11.34
2022-12-04T09:37:32.857Z,11.80
2022-12-04T09:42:26.730Z,11.60
2022-12-04T09:46:34.135Z,11.82
2022-12-04T09:50:43.610Z,11.75
2022-12-04T09:54:46.606Z,11.44
2022-12-04T09:58:53.988Z,12.05
2022-12-04T10:03:02.062Z,12.25
2022-12-04T10:07:15.795Z,11.63
2022-12-04T10:11:27.686Z,12.35
2022-12-04T10:15:43.847Z,12.32
2022-12-04T10:19:59.388Z,12.68
2022-12-04T10:24:31.150Z,12.61
2022-12-04T10:28:40.211Z,12.44
2022-12-04T10:32:43.349Z,12.56
2022-12-04T10:36:50.956Z,12.59
2022-12-04T10:41:03.876Z,12.36
2022-12-04T10:50:33.896Z,11.61
2022-12-04T10:55:30.795Z,12.53
2022-12-04T11:00:55.222Z,13.18
2022-12-04T11:06:23.253Z,11.23
2022-12-04T11:11:13.336Z,10.88
2022-12-04T11:15:33.817Z,11.14
2022-12-04T11:20:25.762Z,13.16
2022-12-04T11:24:51.618Z,12.60
2022-12-04T11:29:01.469Z,13.43
2022-12-04T11:33:03.370Z,13.17
2022-12-04T11:37:04.373Z,13.25
2022-12-04T11:41:07.086Z,13.16
2022-12-04T11:45:26.453Z,12.92
2022-12-04T11:49:30.289Z,12.92
2022-12-04T11:53:48.288Z,12.80
2022-12-04T11:58:08.337Z,13.51
2022-12-04T12:03:02.256Z,12.92
2022-12-04T12:07:19.424Z,12.97
2022-12-04T12:11:29.073Z,12.96
2022-12-04T12:15:44.569Z,12.86
2022-12-04T12:20:13.523Z,13.25
2022-12-04T12:24:30.084Z,12.75
2022-12-04T12:29:02.995Z,13.43
2022-12-04T12:33:21.188Z,12.68
2022-12-04T12:37:37.600Z,12.84
2022-12-04T12:41:45.640Z,13.03
2022-12-04T12:45:56.783Z,12.85
2022-12-04T12:50:03.540Z,12.76
2022-12-04T12:54:20.484Z,12.78
2022-12-04T12:58:29.379Z,12.93
2022-12-04T13:02:38.380Z,13.21
2022-12-04T13:06:43.918Z,12.95
2022-12-04T13:10:52.751Z,12.98
2022-12-04T13:14:52.905Z,13.10
2022-12-04T13:19:04.454Z,12.78
2022-12-04T13:23:26.879Z,12.92
2022-12-04T13:27:48.079Z,12.50
2022-12-04T13:32:02.816Z,13.11
2022-12-04T13:36:36.741Z,12.46
2022-12-04T13:40:43.369Z,12.92
2022-12-04T13:44:46.354Z,13.11
2022-12-04T13:48:46.619Z,12.92
2022-12-04T13:52:49.248Z,12.74
2022-12-04T13:56:52.323Z,13.00
2022-12-04T14:01:06.280Z,12.93
2022-12-04T14:05:10.363Z,12.68
2022-12-04T14:09:24.385Z,12.82
2022-12-04T14:13:30.919Z,12.80
2022-12-04T14:17:37.947Z,12.91
2022-12-04T14:21:46.153Z,12.78
2022-12-04T14:25:46.741Z,12.86
2022-12-04T14:29:55.100Z,12.73
2022-12-04T14:34:02.662Z,12.84
2022-12-04T14:38:06.697Z,12.97
2022-12-04T14:42:17.311Z,12.87
2022-12-04T14:46:29.282Z,12.99
2022-12-04T14:50:46.206Z,12.87
2022-12-04T14:55:00.465Z,12.95
2022-12-04T14:59:07.743Z,12.85
2022-12-04T15:03:15.328Z,12.82
2022-12-04T15:07:23.309Z,12.75
2022-12-04T15:11:42.426Z,12.58
2022-12-04T15:15:48.897Z,12.69
2022-12-04T15:19:48.998Z,12.61
2022-12-04T15:23:53.006Z,12.81
2022-12-04T15:28:02.176Z,13.00
2022-12-04T15:32:08.628Z,12.92
2022-12-04T15:36:15.202Z,12.82
2022-12-04T15:40:26.828Z,12.73
2022-12-04T15:44:32.641Z,12.78
2022-12-04T15:48:34.569Z,12.72
2022-12-04T15:52:34.955Z,12.82
2022-12-04T15:56:37.655Z,12.78
2022-12-04T16:00:42.952Z,12.39
2022-12-04T16:04:45.562Z,12.31
2022-12-04T16:08:49.273Z,12.83
2022-12-04T16:12:56.671Z,12.91
2022-12-04T16:17:06.545Z,12.86
2022-12-04T16:21:07.281Z,12.99
2022-12-04T16:25:08.393Z,12.83
2022-12-04T16:29:12.536Z,12.83
2022-12-04T16:33:17.463Z,12.53
2022-12-04T16:37:21.075Z,12.54
2022-12-04T16:41:23.535Z,12.56
2022-12-04T16:45:32.840Z,12.92
2022-12-04T16:49:34.497Z,12.80
2022-12-04T16:53:34.689Z,13.08
2022-12-04T16:57:35.070Z,12.68
2022-12-04T17:01:44.060Z,12.90
2022-12-04T17:05:44.240Z,13.20
2022-12-04T17:09:44.595Z,12.96
2022-12-04T17:13:45.053Z,13.13
2022-12-04T17:17:47.824Z,12.90
2022-12-04T17:21:47.895Z,13.33
2022-12-04T17:25:47.992Z,13.00
2022-12-04T17:29:48.136Z,13.26
2022-12-04T17:33:51.739Z,13.40
2022-12-04T17:37:51.863Z,13.38
2022-12-04T17:41:51.929Z,13.41
2022-12-04T17:45:52.002Z,13.29
2022-12-04T17:49:55.180Z,12.89
2022-12-04T17:53:56.593Z,13.00
2022-12-04T17:57:57.100Z,12.81
2022-12-04T18:01:57.165Z,13.15
2022-12-04T18:06:00.836Z,12.40
2022-12-04T18:10:01.303Z,13.10
2022-12-04T18:14:11.520Z,13.04
2022-12-04T18:18:12.248Z,13.01
2022-12-04T18:22:15.070Z,13.16
2022-12-04T18:26:17.614Z,13.10
2022-12-04T18:30:18.292Z,12.96
2022-12-04T18:34:18.536Z,13.04
2022-12-04T18:38:21.267Z,13.14
2022-12-04T18:42:21.430Z,13.09
2022-12-04T18:46:23.094Z,12.92
2022-12-04T18:50:23.326Z,12.81
2022-12-04T18:54:26.972Z,12.90
2022-12-04T18:58:27.340Z,12.73
2022-12-04T19:02:27.830Z,12.62
2022-12-04T19:06:33.320Z,12.66
2022-12-04T19:10:36.308Z,12.97
2022-12-04T19:14:37.924Z,13.15
2022-12-04T19:18:39.384Z,13.17
2022-12-04T19:22:40.254Z,12.98
2022-12-04T19:26:43.865Z,12.84
2022-12-04T19:30:44.401Z,13.04
2022-12-04T19:34:44.663Z,12.90
2022-12-04T19:38:45.465Z,13.07
2022-12-04T19:42:48.470Z,13.02
2022-12-04T19:46:48.715Z,13.19
2022-12-04T19:50:48.898Z,12.98
2022-12-04T19:54:49.139Z,12.83
2022-12-04T19:58:51.871Z,13.19
2022-12-04T20:02:52.149Z,13.33
2022-12-04T20:06:53.266Z,13.31
2022-12-04T20:10:53.556Z,13.38
2022-12-04T20:14:56.303Z,13.45
2022-12-04T20:18:58.003Z,13.20
2022-12-04T20:22:58.927Z,13.27
2022-12-04T20:26:59.204Z,13.16
2022-12-04T20:31:03.308Z,13.12
2022-12-04T20:35:03.820Z,13.15
2022-12-04T20:39:04.105Z,13.20
2022-12-04T20:43:04.369Z,13.11
2022-12-04T20:47:07.091Z,13.31
2022-12-04T20:51:07.356Z,13.08
2022-12-04T20:55:10.435Z,13.26
2022-12-04T20:59:14.670Z,13.22
2022-12-04T21:03:17.898Z,12.85
2022-12-04T21:07:18.034Z,12.92
2022-12-04T21:11:18.329Z,13.04
2022-12-04T21:15:31.273Z,13.07
2022-12-04T21:19:34.062Z,13.15
2022-12-04T21:23:36.062Z,12.91
2022-12-04T21:27:36.255Z,12.94
2022-12-04T21:31:37.608Z,12.78
2022-12-04T21:35:42.723Z,13.05
2022-12-04T21:39:43.255Z,12.98
2022-12-04T21:43:43.782Z,12.93
2022-12-04T21:47:44.324Z,12.72
2022-12-04T21:52:02.842Z,12.63
2022-12-04T21:56:03.025Z,12.75
2022-12-04T22:00:04.172Z,12.45
2022-12-04T22:04:05.235Z,12.83
2022-12-04T22:08:08.456Z,12.47
2022-12-04T22:12:33.324Z,12.52
2022-12-04T22:16:31.067Z,12.86
2022-12-04T22:20:31.404Z,12.90
2022-12-04T22:24:34.250Z,12.77
2022-12-04T22:28:34.441Z,13.08
2022-12-04T22:32:34.615Z,13.11
2022-12-04T22:36:36.093Z,13.06
2022-12-04T22:40:40.696Z,12.80
2022-12-04T22:44:40.772Z,12.70
2022-12-04T22:48:42.691Z,12.75
2022-12-04T22:52:42.799Z,12.88
2022-12-04T22:56:46.094Z,12.98
2022-12-04T23:00:46.247Z,12.99
2022-12-04T23:04:46.356Z,12.96
2022-12-04T23:08:47.511Z,12.90
2022-12-04T23:12:50.234Z,12.92
2022-12-04T23:16:51.157Z,12.86
2022-12-04T23:20:51.398Z,12.82
2022-12-04T23:24:51.685Z,12.34
2022-12-04T23:28:55.123Z,12.43
2022-12-04T23:32:55.408Z,12.55
2022-12-04T23:36:55.540Z,12.74
2022-12-04T23:41:04.057Z,12.65
2022-12-04T23:45:07.982Z,12.59
2022-12-04T23:49:08.047Z,12.54
2022-12-04T23:53:08.224Z,12.65
2022-12-04T23:57:08.495Z,12.51
